Time;durP1;ratioP1;P1;durP2;ratioP2;P2;SDS_P1;SDS_P2;PMS_P1;PMS_P2;Temp;Humidity;BMP_temperature;BMP_pressure;BME280_temperature;BME280_humidity;BME280_pressure;Samples;Min_cycle;Max_cycle;Signal;HPM_P1;HPM_P2
2022/03/02 00:01:34;;;;;;;38.85;21.42;;;;;;;5.40;95.87;102703.97;5043104;28;20104;-75
2022/03/02 00:03:59;;;;;;;40.65;21.77;;;;;;;5.37;94.84;102717.09;5035001;28;20025;-76
2022/03/02 00:06:25;;;;;;;38.33;21.58;;;;;;;5.36;94.71;102706.56;5035060;28;20065;-77
2022/03/02 00:08:50;;;;;;;37.20;21.10;;;;;;;5.40;95.50;102711.84;5035235;28;20494;-76
2022/03/02 00:11:16;;;;;;;38.13;21.50;;;;;;;5.35;95.86;102707.44;5034881;28;20095;-77
2022/03/02 00:13:42;;;;;;;36.67;20.98;;;;;;;5.35;95.19;102716.19;5034588;28;20052;-77
2022/03/02 00:16:08;;;;;;;36.13;20.83;;;;;;;5.34;95.13;102706.53;5035159;28;20029;-77
2022/03/02 00:18:34;;;;;;;35.60;20.40;;;;;;;5.35;95.49;102705.69;5035102;28;20105;-76
2022/03/02 00:20:59;;;;;;;39.45;20.55;;;;;;;5.32;95.34;102700.41;5034709;28;20021;-76
2022/03/02 00:23:25;;;;;;;41.97;21.20;;;;;;;5.30;95.40;102698.66;5034179;28;20044;-77
2022/03/02 00:25:50;;;;;;;38.55;21.20;;;;;;;5.30;96.18;102690.75;5034931;28;20025;-76
2022/03/02 00:28:15;;;;;;;37.58;21.33;;;;;;;5.29;96.52;102694.25;5033250;28;20045;-76
2022/03/02 00:30:41;;;;;;;36.45;22.00;;;;;;;5.30;96.14;102691.63;5034963;28;20129;-76
2022/03/02 00:33:07;;;;;;;40.40;21.17;;;;;;;5.28;96.01;102695.13;5034208;28;20053;-77
2022/03/02 00:35:34;;;;;;;36.40;20.27;;;;;;;5.27;96.12;102699.50;5034800;28;20100;-76
2022/03/02 00:38:00;;;;;;;39.35;21.00;;;;;;;5.30;96.14;102712.66;5034398;28;20075;-76
2022/03/02 00:40:25;;;;;;;36.15;20.67;;;;;;;5.32;95.96;102704.78;5034958;28;20025;-77
2022/03/02 00:42:51;;;;;;;39.35;20.65;;;;;;;5.35;95.74;102710.94;5034263;28;20389;-77
2022/03/02 00:45:16;;;;;;;37.47;21.98;;;;;;;5.41;95.63;102705.72;5034205;28;20064;-76
2022/03/02 00:47:42;;;;;;;39.60;21.13;;;;;;;5.44;95.07;102701.38;5053185;28;20488;-76
2022/03/02 00:50:08;;;;;;;35.40;20.92;;;;;;;5.46;95.00;102703.13;5074434;28;20020;-76
2022/03/02 00:52:34;;;;;;;40.33;20.83;;;;;;;5.46;94.43;102707.50;5074179;28;20472;-76
2022/03/02 00:54:59;;;;;;;39.00;20.67;;;;;;;5.46;94.16;102700.50;5070896;28;20036;-77
2022/03/02 00:57:25;;;;;;;34.30;20.42;;;;;;;5.41;94.35;102692.59;5074299;28;20499;-76
2022/03/02 00:59:50;;;;;;;37.88;21.63;;;;;;;5.43;93.84;102694.34;5074121;28;20492;-76
2022/03/02 01:02:15;;;;;;;39.38;20.88;;;;;;;5.41;94.44;102694.34;5074123;28;20051;-76
2022/03/02 01:04:41;;;;;;;33.60;20.27;;;;;;;5.44;94.01;102678.59;5070227;28;20035;-76
2022/03/02 01:07:06;;;;;;;37.85;20.73;;;;;;;5.46;94.17;102690.00;5074083;28;20063;-77
2022/03/02 01:09:31;;;;;;;35.60;20.95;;;;;;;5.39;93.97;102677.69;5073315;28;20047;-77
2022/03/02 01:11:57;;;;;;;38.10;21.92;;;;;;;5.35;94.67;102679.41;5073952;28;20070;-77
2022/03/02 01:14:23;;;;;;;36.20;20.65;;;;;;;5.37;94.34;102679.41;5072240;28;20046;-77
2022/03/02 01:16:49;;;;;;;39.42;21.52;;;;;;;5.39;93.92;102670.66;5071822;28;20028;-77
2022/03/02 01:19:14;;;;;;;34.20;20.05;;;;;;;5.39;94.27;102672.44;5073838;28;20521;-76
2022/03/02 01:21:40;;;;;;;37.80;20.65;;;;;;;5.37;94.40;102674.16;5073758;28;20028;-76
2022/03/02 01:24:06;;;;;;;36.60;20.77;;;;;;;5.36;95.06;102670.66;5071794;28;20824;-76
2022/03/02 01:26:31;;;;;;;39.20;21.17;;;;;;;5.29;94.48;102663.59;5071730;28;20021;-76
2022/03/02 01:28:57;;;;;;;34.45;20.40;;;;;;;5.27;94.50;102664.47;5073526;28;20388;-76
2022/03/02 01:31:24;;;;;;;41.15;21.52;;;;;;;5.21;94.22;102660.06;5073594;28;20035;-77
2022/03/02 01:33:50;;;;;;;33.08;19.92;;;;;;;5.15;94.92;102662.63;5073913;28;20035;-76
2022/03/02 01:36:16;;;;;;;38.92;21.33;;;;;;;5.16;94.81;102664.41;5071848;28;20096;-76
2022/03/02 01:38:41;;;;;;;38.00;20.95;;;;;;;5.07;94.62;102666.06;5071333;28;20032;-76
2022/03/02 01:41:07;;;;;;;35.65;20.33;;;;;;;5.07;95.66;102659.94;5073051;28;20028;-76
2022/03/02 01:43:32;;;;;;;35.05;20.50;;;;;;;5.06;94.25;102656.47;5073448;28;20379;-77
2022/03/02 01:45:58;;;;;;;38.20;20.65;;;;;;;5.03;94.10;102655.56;5071715;28;20032;-76
2022/03/02 01:48:23;;;;;;;36.17;20.73;;;;;;;4.99;94.62;102645.91;5053080;28;20110;-76
2022/03/02 01:50:48;;;;;;;37.72;20.77;;;;;;;4.98;94.52;102642.38;5073289;28;20071;-77
2022/03/02 01:53:14;;;;;;;36.75;21.00;;;;;;;4.95;94.27;102641.47;5073296;28;20024;-77
2022/03/02 01:55:39;;;;;;;38.20;21.55;;;;;;;4.93;94.42;102644.97;5070861;28;20058;-76
2022/03/02 01:58:04;;;;;;;35.63;19.85;;;;;;;4.98;94.38;102637.13;5071593;28;20060;-76
2022/03/02 02:00:31;;;;;;;38.78;21.33;;;;;;;5.01;92.73;102641.53;5073238;28;20108;-76
2022/03/02 02:02:57;;;;;;;33.97;20.48;;;;;;;5.04;93.34;102639.81;5073196;28;20038;-76
2022/03/02 02:05:23;;;;;;;36.25;20.73;;;;;;;5.07;92.91;102639.81;5073211;28;20107;-77
2022/03/02 02:07:49;;;;;;;35.72;20.23;;;;;;;5.06;93.97;102629.31;5071431;28;20032;-75
2022/03/02 02:10:15;;;;;;;34.15;19.95;;;;;;;5.05;92.96;102632.78;5071293;28;20503;-76
2022/03/02 02:12:41;;;;;;;38.00;21.15;;;;;;;5.05;92.96;102625.81;5072717;28;20032;-76
2022/03/02 02:15:09;;;;;;;35.70;21.15;;;;;;;5.04;93.55;102631.91;5071179;28;20165;-76
2022/03/02 02:17:34;;;;;;;41.00;20.63;;;;;;;5.04;93.83;102626.69;5072994;28;20182;-76
2022/03/02 02:20:00;;;;;;;37.15;21.00;;;;;;;5.12;92.62;102623.22;5071434;28;20107;-75
2022/03/02 02:22:25;;;;;;;34.38;20.20;;;;;;;5.12;93.13;102625.84;5072810;28;20139;-76
2022/03/02 02:24:50;;;;;;;36.22;20.23;;;;;;;5.11;92.16;102621.47;5071171;28;20039;-77
2022/03/02 02:27:17;;;;;;;37.80;20.98;;;;;;;5.12;91.93;102610.97;5072393;28;20023;-78
2022/03/02 02:29:43;;;;;;;38.85;20.65;;;;;;;5.17;91.74;102613.63;5071630;28;20016;-76
2022/03/02 02:32:09;;;;;;;35.78;19.73;;;;;;;5.17;91.89;102618.88;5072439;28;20372;-77
2022/03/02 02:34:34;;;;;;;42.65;20.60;;;;;;;5.18;92.25;102616.25;5071088;28;20499;-77
2022/03/02 02:37:00;;;;;;;35.75;20.48;;;;;;;5.17;91.61;102609.25;5070967;28;20029;-76
2022/03/02 02:39:27;;;;;;;36.38;20.20;;;;;;;5.18;92.70;102604.84;5072894;28;20491;-77
2022/03/02 02:41:53;;;;;;;33.85;19.25;;;;;;;5.13;92.04;102602.22;5070567;28;20426;-77
2022/03/02 02:44:18;;;;;;;34.28;19.65;;;;;;;5.17;92.36;102604.00;5072690;28;20028;-75
2022/03/02 02:46:44;;;;;;;39.42;20.30;;;;;;;5.24;91.09;102605.81;5070996;28;20128;-75
2022/03/02 02:49:10;;;;;;;34.22;19.88;;;;;;;5.27;90.46;102596.16;5072754;28;20353;-77
2022/03/02 02:51:35;;;;;;;35.35;19.83;;;;;;;5.24;90.33;102595.28;5070756;28;20020;-76
2022/03/02 02:54:02;;;;;;;35.90;20.50;;;;;;;5.21;91.15;102584.75;5052592;28;20040;-77
2022/03/02 02:56:27;;;;;;;35.95;19.85;;;;;;;5.24;91.76;102587.41;5053455;28;20029;-76
2022/03/02 02:58:53;;;;;;;35.88;19.83;;;;;;;5.24;90.74;102586.50;5052315;28;20469;-77
2022/03/02 03:01:18;;;;;;;35.08;20.13;;;;;;;5.22;90.61;102593.53;5052728;28;20052;-76
2022/03/02 03:03:44;;;;;;;33.50;19.42;;;;;;;5.26;90.67;102584.78;5053393;28;20372;-77
2022/03/02 03:06:10;;;;;;;39.08;21.50;;;;;;;5.34;90.48;102579.56;5053171;28;20037;-76
2022/03/02 03:08:35;;;;;;;35.88;20.35;;;;;;;5.30;89.49;102568.16;5052272;28;20020;-77
2022/03/02 03:11:02;;;;;;;36.35;20.60;;;;;;;5.28;90.03;102575.19;5052402;28;20068;-76
2022/03/02 03:13:28;;;;;;;36.67;20.75;;;;;;;5.23;89.97;102572.53;5053117;28;20029;-76
2022/03/02 03:15:54;;;;;;;33.15;19.60;;;;;;;5.24;90.45;102573.38;5052320;28;20033;-76
2022/03/02 03:18:19;;;;;;;36.72;19.30;;;;;;;5.21;90.97;102569.00;5053401;28;20028;-76
2022/03/02 03:20:44;;;;;;;36.30;19.45;;;;;;;5.25;90.94;102577.78;5052225;28;20103;-76
2022/03/02 03:23:10;;;;;;;32.67;18.52;;;;;;;5.25;90.08;102575.16;5053262;28;20095;-76
2022/03/02 03:25:35;;;;;;;35.95;20.23;;;;;;;5.27;89.51;102573.41;5052367;28;20469;-77
2022/03/02 03:28:02;;;;;;;35.58;19.48;;;;;;;5.25;89.68;102567.25;5054071;28;20037;-76
2022/03/02 03:30:28;;;;;;;35.80;20.27;;;;;;;5.25;89.98;102573.38;5056009;28;20047;-76
2022/03/02 03:32:53;;;;;;;37.45;20.17;;;;;;;5.28;89.84;102572.56;5055955;28;20525;-76
2022/03/02 03:35:20;;;;;;;34.20;20.10;;;;;;;5.24;90.55;102570.75;5057860;28;20067;-76
2022/03/02 03:37:46;;;;;;;34.10;19.75;;;;;;;5.22;89.93;102565.50;5037541;28;20037;-76
2022/03/02 03:40:14;;;;;;;34.70;19.77;;;;;;;5.25;89.70;102554.13;5055720;28;20064;-76
2022/03/02 03:42:41;;;;;;;36.72;20.52;;;;;;;5.19;89.75;102565.50;5055828;28;20029;-76
2022/03/02 03:45:07;;;;;;;36.67;20.40;;;;;;;5.14;89.52;102553.19;5056241;28;20028;-77
2022/03/02 03:47:34;;;;;;;34.67;20.02;;;;;;;5.16;90.30;102552.34;5056599;28;20452;-77
2022/03/02 03:49:59;;;;;;;37.92;20.52;;;;;;;5.16;91.07;102556.72;5055645;28;20104;-77
2022/03/02 03:52:25;;;;;;;32.70;19.25;;;;;;;5.15;91.14;102554.97;5055666;28;20056;-76
2022/03/02 03:54:50;;;;;;;37.78;20.08;;;;;;;5.14;89.60;102554.09;5055337;28;20476;-76
2022/03/02 03:57:16;;;;;;;38.35;20.58;;;;;;;5.13;89.19;102551.44;5054948;28;20033;-77
2022/03/02 03:59:41;;;;;;;34.85;20.63;;;;;;;5.13;89.70;102554.94;5055054;28;20029;-75
2022/03/02 04:02:06;;;;;;;36.65;20.17;;;;;;;5.17;89.59;102551.47;5036816;28;20033;-76
2022/03/02 04:04:32;;;;;;;36.10;20.75;;;;;;;5.16;90.13;102554.97;5055389;28;20082;-76
2022/03/02 04:06:58;;;;;;;39.70;20.65;;;;;;;5.13;90.30;102557.59;5054606;28;20017;-76
2022/03/02 04:09:23;;;;;;;34.15;20.60;;;;;;;5.14;90.11;102548.84;5055200;28;20487;-76
2022/03/02 04:11:49;;;;;;;36.03;20.33;;;;;;;5.11;90.57;102548.81;5055147;28;20031;-77
2022/03/02 04:14:14;;;;;;;36.05;20.80;;;;;;;5.07;90.86;102533.91;5054992;28;20039;-76
2022/03/02 04:16:39;;;;;;;35.03;19.42;;;;;;;5.10;89.38;102531.28;5054045;28;20029;-76
2022/03/02 04:19:05;;;;;;;36.83;20.50;;;;;;;5.09;89.86;102537.44;5054931;28;20025;-76
2022/03/02 04:21:31;;;;;;;36.70;19.92;;;;;;;5.09;90.13;102530.41;5054935;28;20035;-76
2022/03/02 04:23:57;;;;;;;33.47;19.75;;;;;;;5.04;89.78;102524.25;5055036;28;20056;-76
2022/03/02 04:26:22;;;;;;;35.60;20.25;;;;;;;4.99;90.04;102527.75;5055001;28;20056;-77
2022/03/02 04:28:47;;;;;;;35.25;19.35;;;;;;;5.01;90.47;102526.88;5054340;28;20036;-77
2022/03/02 04:31:13;;;;;;;33.33;19.65;;;;;;;4.98;89.90;102518.97;5054224;28;20017;-76
2022/03/02 04:33:38;;;;;;;37.35;20.73;;;;;;;4.96;90.84;102514.59;5054900;28;20036;-77
2022/03/02 04:36:05;;;;;;;36.03;20.98;;;;;;;4.96;90.65;102520.69;5054924;28;20025;-77
2022/03/02 04:38:30;;;;;;;34.38;19.75;;;;;;;4.93;91.88;102520.69;5054408;28;20028;-77
2022/03/02 04:40:56;;;;;;;33.15;19.65;;;;;;;4.93;91.89;102511.06;5053788;28;20029;-76
2022/03/02 04:43:22;;;;;;;36.42;20.77;;;;;;;4.90;92.47;102521.56;5036567;28;20518;-77
2022/03/02 04:45:47;;;;;;;33.63;20.20;;;;;;;4.91;92.74;102511.94;5054008;28;20056;-76
2022/03/02 04:48:12;;;;;;;35.45;19.63;;;;;;;4.95;92.62;102507.56;5053787;28;20087;-75
2022/03/02 04:50:38;;;;;;;36.35;20.75;;;;;;;4.85;92.11;102499.66;5054522;28;20131;-76
2022/03/02 04:53:03;;;;;;;37.88;20.65;;;;;;;4.85;92.83;102501.41;5054562;28;20032;-76
2022/03/02 04:55:30;;;;;;;36.35;20.58;;;;;;;4.88;93.17;102499.66;5054455;28;20029;-76
2022/03/02 04:57:58;;;;;;;35.53;20.80;;;;;;;4.90;92.41;102504.94;5052768;28;20039;-76
2022/03/02 05:00:29;;;;;;;35.92;21.40;;;;;;;4.91;92.29;102502.31;5053417;28;20101;-76
2022/03/02 05:02:55;;;;;;;36.75;21.15;;;;;;;4.87;92.70;102499.66;5053693;28;20033;-76
2022/03/02 05:05:23;;;;;;;33.63;20.55;;;;;;;4.89;92.86;102500.56;5054135;28;20029;-77
2022/03/02 05:07:49;;;;;;;38.22;19.98;;;;;;;4.86;92.76;102500.53;5054320;28;20021;-76
2022/03/02 05:10:18;;;;;;;36.13;19.95;;;;;;;4.88;93.00;102502.28;5053291;28;20041;-77
2022/03/02 05:12:43;;;;;;;37.08;20.92;;;;;;;4.91;91.88;102504.06;5053941;28;20477;-76
2022/03/02 05:15:11;;;;;;;34.97;20.77;;;;;;;4.90;92.01;102499.69;5053939;28;20044;-77
2022/03/02 05:17:37;;;;;;;38.58;20.88;;;;;;;4.86;91.63;102490.91;5053750;28;20059;-77
2022/03/02 05:20:08;;;;;;;34.75;20.55;;;;;;;4.86;92.16;102497.91;5053351;28;20044;-76
2022/03/02 05:22:33;;;;;;;36.08;19.95;;;;;;;4.92;91.63;102500.56;5052650;28;20048;-76
2022/03/02 05:24:58;;;;;;;36.75;21.00;;;;;;;4.92;91.73;102496.22;5053861;28;20074;-77
2022/03/02 05:27:24;;;;;;;36.88;20.67;;;;;;;4.96;91.43;102504.94;5039954;28;20351;-77
2022/03/02 05:29:50;;;;;;;38.80;20.92;;;;;;;4.96;91.43;102493.59;5035164;28;20029;-76
2022/03/02 05:32:15;;;;;;;36.22;19.88;;;;;;;4.91;91.24;102491.81;5036773;28;20029;-76
2022/03/02 05:34:40;;;;;;;37.10;20.77;;;;;;;4.89;90.39;102495.31;5053504;28;20083;-77
2022/03/02 05:37:06;;;;;;;34.25;20.05;;;;;;;4.91;91.09;102494.44;5053420;28;20021;-77
2022/03/02 05:39:31;;;;;;;35.03;19.90;;;;;;;4.91;90.34;102497.06;5053507;28;20043;-77
2022/03/02 05:41:57;;;;;;;32.90;19.80;;;;;;;4.90;90.40;102495.31;5052579;28;20222;-77
2022/03/02 05:44:22;;;;;;;37.45;21.02;;;;;;;4.89;90.80;102487.44;5053523;28;20029;-76
2022/03/02 05:46:48;;;;;;;33.80;20.10;;;;;;;4.88;90.66;102490.91;5052904;28;20112;-77
2022/03/02 05:49:14;;;;;;;33.30;20.17;;;;;;;4.90;90.55;102492.69;5053027;28;20017;-76
2022/03/02 05:51:39;;;;;;;37.58;21.60;;;;;;;4.87;91.61;102502.28;5052626;28;20025;-77
2022/03/02 05:54:08;;;;;;;34.78;21.23;;;;;;;4.92;91.03;102490.06;5052615;28;20044;-76
2022/03/02 05:56:34;;;;;;;40.20;20.83;;;;;;;4.92;91.09;102493.59;5052958;28;20462;-77
2022/03/02 05:59:00;;;;;;;32.70;19.65;;;;;;;4.92;90.35;102493.59;5042512;28;20124;-77
2022/03/02 06:01:25;;;;;;;35.45;20.25;;;;;;;4.89;91.18;102490.91;5046224;28;20492;-76
2022/03/02 06:03:51;;;;;;;34.55;19.73;;;;;;;4.89;91.45;102497.94;5052344;28;20044;-77
2022/03/02 06:06:17;;;;;;;36.38;20.38;;;;;;;4.88;91.71;102499.66;5053137;28;20522;-77
2022/03/02 06:08:43;;;;;;;35.72;20.02;;;;;;;4.87;92.16;102492.69;5052686;28;20029;-77
2022/03/02 06:11:09;;;;;;;36.95;20.15;;;;;;;4.83;91.75;102495.28;5053096;28;20060;-76
2022/03/02 06:13:34;;;;;;;34.65;20.85;;;;;;;4.78;92.34;102492.59;5052227;28;20116;-76
2022/03/02 06:16:01;;;;;;;34.00;19.88;;;;;;;4.79;92.05;102486.50;5052826;28;20035;-76
2022/03/02 06:18:26;;;;;;;35.00;20.52;;;;;;;4.80;92.13;102490.00;5035286;28;20491;-76
2022/03/02 06:20:52;;;;;;;37.15;19.70;;;;;;;4.81;92.05;102497.00;5052518;28;20029;-78
2022/03/02 06:23:21;;;;;;;34.78;20.63;;;;;;;4.79;92.14;102499.63;5052370;28;20119;-76
2022/03/02 06:25:47;;;;;;;42.55;21.08;;;;;;;4.75;92.56;102503.97;5052457;28;20107;-77
2022/03/02 06:28:13;;;;;;;33.60;20.25;;;;;;;4.73;92.51;102502.19;5052758;28;20545;-75
2022/03/02 06:30:38;;;;;;;38.00;19.95;;;;;;;4.68;92.14;102501.28;5052618;28;20025;-76
2022/03/02 06:33:03;;;;;;;35.13;20.13;;;;;;;4.69;92.45;102496.06;5049187;28;20031;-76
2022/03/02 06:35:29;;;;;;;34.90;20.48;;;;;;;4.68;93.00;102510.06;5043435;28;20233;-76
2022/03/02 06:37:55;;;;;;;35.22;20.65;;;;;;;4.76;92.79;102505.72;5032428;28;20381;-77
2022/03/02 06:40:21;;;;;;;36.13;20.92;;;;;;;4.84;91.62;102513.66;5032820;28;20051;-77
2022/03/02 06:43:08;;;;;;;35.30;21.23;;;;;;;4.77;91.51;102514.50;5032584;28;20549;-77
2022/03/02 06:45:55;;;;;;;37.15;19.95;;;;;;;4.81;92.30;102513.63;5034178;28;20033;-77
2022/03/02 06:48:34;;;;;;;32.08;19.65;;;;;;;4.88;91.38;102509.28;5052474;28;20106;-74
2022/03/02 06:51:00;;;;;;;36.97;19.85;;;;;;;4.93;90.38;102516.31;5049722;28;20037;-77
2022/03/02 06:53:37;;;;;;;37.90;20.95;;;;;;;4.90;90.17;102510.19;5049943;28;20028;-75
2022/03/02 06:56:07;;;;;;;34.38;20.25;;;;;;;4.93;90.20;102515.44;5049922;28;20036;-76
2022/03/02 06:58:42;;;;;;;34.92;19.60;;;;;;;4.99;90.77;102523.38;5052049;28;20023;-77
2022/03/02 07:01:13;;;;;;;35.75;19.85;;;;;;;5.05;91.03;102525.13;5052570;28;20031;-78
2022/03/02 07:03:47;;;;;;;38.03;19.33;;;;;;;5.08;89.64;102533.03;5054623;28;20029;-78
2022/03/02 07:06:14;;;;;;;32.28;19.20;;;;;;;5.12;89.04;102521.69;5055780;28;20029;-78
2022/03/02 07:08:44;;;;;;;35.05;20.00;;;;;;;5.17;89.36;102524.34;5055901;28;20025;-78
2022/03/02 07:11:10;;;;;;;36.70;19.58;;;;;;;5.19;88.38;102525.22;5048244;28;20034;-78
2022/03/02 07:13:35;;;;;;;34.25;20.20;;;;;;;5.23;88.49;102514.72;5050934;28;20476;-77
2022/03/02 07:16:01;;;;;;;33.00;19.42;;;;;;;5.31;88.31;102511.28;5055932;28;20102;-78
2022/03/02 07:18:27;;;;;;;32.40;18.48;;;;;;;5.34;87.43;102524.41;5055514;28;20028;-78
2022/03/02 07:20:57;;;;;;;33.40;19.52;;;;;;;5.36;87.86;102515.66;5052264;28;20479;-77
2022/03/02 07:23:28;;;;;;;33.08;19.00;;;;;;;5.40;87.97;102509.53;5039146;28;20132;-76
2022/03/02 07:25:59;;;;;;;35.30;19.55;;;;;;;5.50;87.59;102517.44;5046231;28;20519;-77
2022/03/02 07:28:26;;;;;;;35.53;19.90;;;;;;;5.57;87.17;102517.47;5055158;28;20039;-77
2022/03/02 07:30:53;;;;;;;32.15;19.73;;;;;;;5.70;86.58;102522.78;5053887;28;20028;-78
2022/03/02 07:33:21;;;;;;;31.27;18.67;;;;;;;5.74;86.25;102529.78;5055654;28;20040;-77
2022/03/02 07:35:53;;;;;;;31.42;19.23;;;;;;;5.83;85.19;102521.03;5055844;28;20051;-77
2022/03/02 07:38:20;;;;;;;34.60;19.58;;;;;;;5.85;84.80;102520.16;5054325;28;20021;-78
2022/03/02 07:40:48;;;;;;;37.10;18.90;;;;;;;5.87;85.65;102528.06;5053482;28;20492;-78
2022/03/02 07:43:14;;;;;;;31.98;19.58;;;;;;;5.90;86.03;102531.56;5043102;28;20052;-78
2022/03/02 07:45:40;;;;;;;33.53;18.50;;;;;;;5.96;84.83;102524.56;5054425;28;20099;-78
2022/03/02 07:48:05;;;;;;;41.97;20.42;;;;;;;6.01;85.66;102531.66;5049777;28;20285;-78
2022/03/02 07:50:30;;;;;;;34.58;18.95;;;;;;;6.07;85.02;102531.66;5053421;28;20028;-77
2022/03/02 07:53:00;;;;;;;31.23;18.70;;;;;;;6.14;84.84;102518.47;5054185;28;20162;-77
2022/03/02 07:55:27;;;;;;;33.20;19.60;;;;;;;6.27;83.60;102519.41;5055096;28;20381;-77
2022/03/02 07:57:55;;;;;;;32.72;18.23;;;;;;;6.39;81.74;102525.53;5055277;28;20052;-77
2022/03/02 08:00:22;;;;;;;31.45;19.10;;;;;;;6.51;81.34;102527.28;5053992;28;20033;-78
2022/03/02 08:02:53;;;;;;;31.08;18.35;;;;;;;6.50;81.44;102522.88;5054864;28;20120;-78
2022/03/02 08:05:21;;;;;;;32.97;19.17;;;;;;;6.49;80.81;102521.13;5054880;28;20108;-77
2022/03/02 08:07:49;;;;;;;48.03;18.52;;;;;;;6.66;80.00;102522.84;5054067;28;20021;-77
2022/03/02 08:10:16;;;;;;;31.00;17.15;;;;;;;6.76;77.88;102516.69;5054822;28;20448;-77
2022/03/02 08:12:42;;;;;;;30.52;17.77;;;;;;;6.80;77.92;102522.84;5053164;28;20072;-77
2022/03/02 08:15:09;;;;;;;29.17;17.05;;;;;;;6.81;74.98;102519.34;5052657;28;20041;-77
2022/03/02 08:17:34;;;;;;;29.05;17.60;;;;;;;6.76;74.63;102515.84;5051883;28;20047;-77
2022/03/02 08:20:00;;;;;;;30.23;17.10;;;;;;;6.79;74.27;102516.72;5050739;28;20162;-77
2022/03/02 08:22:29;;;;;;;28.92;16.27;;;;;;;6.75;75.53;102511.44;5052134;28;20522;-76
2022/03/02 08:25:02;;;;;;;28.13;16.48;;;;;;;6.72;73.26;102521.09;5047703;28;20051;-77
2022/03/02 08:27:29;;;;;;;29.25;15.98;;;;;;;6.70;71.43;102522.88;5054655;28;20025;-77
2022/03/02 08:29:56;;;;;;;25.63;15.48;;;;;;;6.72;71.44;102523.72;5047626;28;20032;-77
2022/03/02 08:32:24;;;;;;;28.02;15.07;;;;;;;6.82;71.09;102521.97;5053607;28;20036;-77
2022/03/02 08:34:50;;;;;;;34.05;15.32;;;;;;;6.94;70.28;102514.91;5053530;28;20032;-77
2022/03/02 08:37:19;;;;;;;26.75;14.77;;;;;;;6.96;68.37;102516.66;5054210;28;20073;-77
2022/03/02 08:39:45;;;;;;;28.13;15.07;;;;;;;7.07;66.43;102524.50;5053749;28;20468;-77
2022/03/02 08:42:11;;;;;;;26.23;15.80;;;;;;;7.09;66.94;102516.63;5052020;28;20025;-77
2022/03/02 08:44:38;;;;;;;28.73;14.57;;;;;;;7.21;67.23;102506.03;5054040;28;20036;-77
2022/03/02 08:47:04;;;;;;;27.45;15.05;;;;;;;7.34;66.35;102505.13;5053173;28;20055;-78
2022/03/02 08:49:29;;;;;;;28.95;15.50;;;;;;;7.44;65.86;102502.44;5033625;28;20029;-77
2022/03/02 08:51:56;;;;;;;26.42;14.20;;;;;;;7.48;63.98;102506.78;5034307;28;20060;-79
2022/03/02 08:54:22;;;;;;;27.00;15.57;;;;;;;7.53;63.13;102507.63;5033643;28;20083;-79
2022/03/02 08:56:48;;;;;;;29.20;15.27;;;;;;;7.59;65.42;102506.75;5034959;28;20029;-79
2022/03/02 08:59:15;;;;;;;25.60;14.60;;;;;;;7.77;64.68;102508.41;5041351;28;20029;-78
2022/03/02 09:01:48;;;;;;;26.33;15.05;;;;;;;8.51;62.24;102513.13;5041722;28;20086;-78
2022/03/02 09:04:18;;;;;;;24.13;13.63;;;;;;;9.82;57.37;102497.44;5026240;28;20048;-78
2022/03/02 09:06:45;;;;;;;22.40;13.90;;;;;;;11.16;54.33;102491.56;5032780;28;20029;-78
2022/03/02 09:09:11;;;;;;;22.40;14.38;;;;;;;11.96;49.09;102499.59;5031855;28;20053;-77
2022/03/02 09:11:39;;;;;;;27.67;15.27;;;;;;;12.89;44.04;102490.06;5033383;28;20120;-77
2022/03/02 09:14:06;;;;;;;21.80;14.30;;;;;;;13.81;42.87;102498.03;5034131;28;20029;-78
2022/03/02 09:16:31;;;;;;;23.65;15.30;;;;;;;14.48;41.08;102497.56;5034255;28;20025;-78
2022/03/02 09:18:56;;;;;;;24.00;15.85;;;;;;;14.59;37.63;102494.53;5031217;28;20104;-77
2022/03/02 09:21:22;;;;;;;23.50;14.98;;;;;;;14.77;37.19;102487.72;5033594;28;20496;-77
2022/03/02 09:23:48;;;;;;;26.92;14.23;;;;;;;14.34;37.61;102490.06;5032474;28;20041;-77
2022/03/02 09:26:16;;;;;;;22.30;14.55;;;;;;;14.04;37.41;102492.84;5028004;28;20432;-78
2022/03/02 09:28:46;;;;;;;21.13;13.30;;;;;;;14.27;35.85;102493.84;5029768;28;20029;-77
2022/03/02 09:31:15;;;;;;;22.02;14.18;;;;;;;14.55;35.66;102488.44;5032122;28;20425;-77
2022/03/02 09:33:41;;;;;;;21.45;13.85;;;;;;;14.42;35.37;102496.00;5032618;28;20513;-78
2022/03/02 09:36:09;;;;;;;25.15;13.60;;;;;;;14.31;35.12;102490.16;5032656;28;20511;-76
2022/03/02 09:38:36;;;;;;;23.45;15.60;;;;;;;14.31;36.73;102498.16;5032571;28;20503;-77
2022/03/02 09:41:07;;;;;;;26.67;15.85;;;;;;;14.28;37.72;102494.72;5032072;28;20108;-76
2022/03/02 09:43:35;;;;;;;26.65;15.13;;;;;;;14.11;37.77;102488.16;5023614;28;20056;-76
2022/03/02 09:46:05;;;;;;;19.58;13.55;;;;;;;14.25;35.64;102485.91;5032892;28;20026;-76
2022/03/02 09:48:33;;;;;;;20.77;13.90;;;;;;;14.18;35.19;102489.72;5048033;28;20045;-76
2022/03/02 09:51:05;;;;;;;25.77;13.48;;;;;;;13.93;35.00;102489.66;5052386;28;20095;-76
2022/03/02 09:53:33;;;;;;;23.17;12.98;;;;;;;13.32;36.76;102482.63;5051935;28;20025;-76
2022/03/02 09:56:04;;;;;;;20.85;12.95;;;;;;;13.47;35.69;102480.47;5052473;28;20025;-76
2022/03/02 09:58:30;;;;;;;18.13;12.23;;;;;;;13.47;36.17;102489.31;5052492;28;20035;-77
2022/03/02 10:00:58;;;;;;;24.75;13.35;;;;;;;13.84;36.02;102484.63;5051959;28;20025;-77
2022/03/02 10:03:32;;;;;;;22.50;13.65;;;;;;;13.56;37.90;102490.81;5051542;28;20064;-77
2022/03/02 10:06:03;;;;;;;22.33;14.13;;;;;;;13.78;36.99;102485.69;5052576;28;20825;-76
2022/03/02 10:08:35;;;;;;;20.35;13.13;;;;;;;13.94;37.08;102486.06;5052196;28;20024;-77
2022/03/02 10:11:06;;;;;;;24.52;14.00;;;;;;;14.38;36.75;102488.16;5051962;28;20067;-77
2022/03/02 10:13:33;;;;;;;21.58;13.73;;;;;;;14.77;35.57;102481.50;5049818;28;20060;-77
2022/03/02 10:16:02;;;;;;;25.63;14.40;;;;;;;14.85;36.14;102482.09;5051629;28;20021;-76
2022/03/02 10:18:32;;;;;;;23.58;14.90;;;;;;;14.95;37.44;102480.84;5051875;28;20025;-77
2022/03/02 10:21:01;;;;;;;23.58;16.13;;;;;;;15.39;37.71;102474.72;5052571;28;20024;-77
2022/03/02 10:23:34;;;;;;;25.35;15.05;;;;;;;15.73;36.53;102468.91;5051650;28;20094;-77
2022/03/02 10:26:01;;;;;;;21.27;14.80;;;;;;;15.79;37.31;102474.94;5052360;28;20017;-76
2022/03/02 10:28:51;;;;;;;24.58;14.52;;;;;;;15.91;35.81;102468.25;5052129;28;20040;-76
2022/03/02 10:31:44;;;;;;;22.90;14.65;;;;;;;15.43;36.21;102459.47;5050422;28;20033;-76
2022/03/02 10:34:16;;;;;;;23.45;15.73;;;;;;;16.55;33.66;102452.13;5051621;28;20089;-75
2022/03/02 10:36:45;;;;;;;24.42;15.88;;;;;;;16.71;34.05;102464.81;5047672;28;20420;-77
2022/03/02 10:39:33;;;;;;;22.77;15.60;;;;;;;16.59;34.74;102457.34;5054748;28;20037;-77
2022/03/02 10:42:03;;;;;;;24.40;16.55;;;;;;;17.06;34.44;102456.13;5056044;28;20032;-76
2022/03/02 10:44:58;;;;;;;29.13;16.52;;;;;;;16.81;35.89;102444.72;5055833;28;20075;-76
2022/03/02 10:47:25;;;;;;;27.55;15.55;;;;;;;17.48;33.00;102449.69;5054809;28;20044;-77
2022/03/02 10:49:52;;;;;;;19.92;14.32;;;;;;;17.50;32.65;102458.53;5055353;28;20033;-77
2022/03/02 10:52:21;;;;;;;22.27;14.32;;;;;;;17.43;31.95;102441.88;5056101;28;20099;-76
2022/03/02 10:54:49;;;;;;;21.73;14.77;;;;;;;17.77;30.31;102447.41;5055573;28;20052;-76
2022/03/02 10:57:18;;;;;;;19.25;13.88;;;;;;;18.13;28.19;102444.72;5054453;28;20021;-77
2022/03/02 10:59:44;;;;;;;19.17;13.20;;;;;;;17.54;30.12;102444.03;5053410;28;20037;-77
2022/03/02 11:02:11;;;;;;;23.10;14.05;;;;;;;17.79;28.54;102453.56;5054954;28;20373;-76
2022/03/02 11:04:38;;;;;;;21.30;13.50;;;;;;;17.12;30.60;102446.03;5055912;28;20024;-77
2022/03/02 11:07:03;;;;;;;22.08;14.45;;;;;;;17.38;29.25;102443.03;5055634;28;20074;-77
2022/03/02 11:09:34;;;;;;;23.38;14.95;;;;;;;17.49;29.10;102451.44;5055761;28;20033;-75
2022/03/02 11:12:00;;;;;;;21.88;14.23;;;;;;;17.25;28.92;102446.31;5055369;28;20025;-76
2022/03/02 11:14:26;;;;;;;23.60;13.70;;;;;;;17.39;29.84;102450.13;5055627;28;20036;-77
2022/03/02 11:17:11;;;;;;;19.48;13.30;;;;;;;17.71;28.52;102439.66;5053908;28;20028;-77